Portada
METAR-TAF:

METAR-TAF

Aeroports :

Honiara, Guadalcanal, Illes Salomó

latitud: 09-25S, longitud: 160-03E, altitud: 8 m

Observació

L'informe es va fer fa 58 minuts, a les 18:00 UTC
Vent 3 kt del Sud/Sud-Est
Temperatura 26°C
Humitat 94%
Pressió 1006 hPa
Visibilitat 10 km o més
Escasses núvols a una alçada de 1500 ft
Núvols disperses a una alçada de 10000 ft
calitja

METAR: AGGH 141800Z 16003KT 9999 HZ FEW015 SCT100 26/25 Q1006

Hora: 05:58 (18:58 UTC)

Pronòstic

L'informe es va fer fa 1 hora i 48 minuts, a les 17:10 UTC
Pronòstic vàlid del 14 a les 18 UTC al 15 a les 18 UTC
Vent 8 kt del Nord/Nord-Oest
Visibilitat 10 km o més
Escasses núvols a una alçada de 1700 ft
Núvols disperses a una alçada de 2700 ft
Probabilitat 40%
entre IN i TE UTC
Visibilitat: 1006 m
Cel ennuvolat a una alçada de 1600 ft
Escasses núvols a una alçada de 1700 ft, Cumulonimbus.

TAF: AGGH 141710Z 1418/1518 34008KT 9999 FEW017 SCT027 PROB40 INTER 1502/1506 5000 TSSH BKN016 FEW017CB T 24 28 31 32 Q 1006 1008 1008 1006

Observacions i pronòstics meteorològics de més de 4000 aeroports (METAR i TAF).

Les estacions disponibles són els punts grocs i vermells al mapa.

Posi el ratolí al punt desitjat per veure el nom de l'estació.

Feu clic per veure les observacions i els pronòstics meteorològics.

Per canviar el mapa: feu clic els botons verds amb una creu de color negre per apropar; al botó verd amb un guió per allunyar la imatge; o en les fletxes verdes per a mapes adjacents.


METAR-TAF: